createdAt,value
2023-02-28T00:00:49.388Z,2.45
2023-02-28T00:05:50.799Z,2.46
2023-02-28T00:10:52.223Z,2.42
2023-02-28T00:16:05.602Z,2.45
2023-02-28T00:21:07.664Z,2.48
2023-02-28T00:26:09.120Z,2.54
2023-02-28T00:31:10.610Z,2.51
2023-02-28T00:36:12.808Z,2.52
2023-02-28T00:41:14.287Z,2.52
2023-02-28T00:46:15.772Z,2.42
2023-02-28T00:51:17.229Z,2.43
2023-02-28T00:56:18.736Z,2.39
2023-02-28T01:01:20.208Z,2.47
2023-02-28T01:06:21.626Z,2.48
2023-02-28T01:11:24.187Z,2.44
2023-02-28T01:16:26.004Z,2.43
2023-02-28T01:21:27.863Z,2.30
2023-02-28T01:26:30.172Z,2.36
2023-02-28T01:31:31.913Z,2.37
2023-02-28T01:36:33.558Z,2.39
2023-02-28T01:41:35.952Z,2.33
2023-02-28T01:46:37.474Z,2.36
2023-02-28T01:51:51.377Z,2.32
2023-02-28T01:56:59.615Z,2.18
2023-02-28T02:02:02.303Z,2.17
2023-02-28T02:07:04.609Z,2.20
2023-02-28T02:12:27.801Z,2.34
2023-02-28T02:17:33.250Z,2.29
2023-02-28T02:22:59.064Z,2.23
2023-02-28T02:28:37.736Z,2.22
2023-02-28T02:34:20.328Z,2.23
2023-02-28T02:39:47.147Z,2.28
2023-02-28T02:44:55.064Z,2.25
2023-02-28T02:49:59.500Z,2.20
2023-02-28T02:55:03.124Z,2.21
2023-02-28T03:00:09.452Z,2.17
2023-02-28T03:05:24.832Z,2.12
2023-02-28T03:10:30.972Z,2.15
2023-02-28T03:15:49.812Z,2.18
2023-02-28T03:21:04.568Z,2.08
2023-02-28T03:26:19.832Z,1.95
2023-02-28T03:31:34.254Z,1.92
2023-02-28T03:36:45.343Z,2.02
2023-02-28T03:41:53.133Z,2.01
2023-02-28T03:47:01.856Z,2.08
2023-02-28T03:52:07.658Z,2.05
2023-02-28T03:57:23.987Z,2.07
2023-02-28T04:02:25.511Z,2.00
2023-02-28T04:07:30.602Z,2.05
2023-02-28T04:12:32.048Z,2.13
2023-02-28T04:17:33.473Z,2.11
2023-02-28T04:22:34.886Z,2.03
2023-02-28T04:27:36.367Z,2.03
2023-02-28T04:32:37.847Z,1.93
2023-02-28T04:37:39.278Z,1.84
2023-02-28T04:42:40.687Z,1.96
2023-02-28T04:47:42.103Z,1.97
2023-02-28T04:52:43.562Z,1.95
2023-02-28T04:57:45.078Z,2.00
2023-02-28T05:02:46.519Z,1.94
2023-02-28T05:07:47.928Z,2.00
2023-02-28T05:12:49.447Z,2.05
2023-02-28T05:17:51.037Z,2.02
2023-02-28T05:22:53.634Z,2.06
2023-02-28T05:27:55.090Z,2.01
2023-02-28T05:32:56.738Z,1.94
2023-02-28T05:37:58.333Z,2.00
2023-02-28T05:42:59.788Z,2.00
2023-02-28T05:48:01.420Z,2.01
2023-02-28T05:53:03.087Z,2.00
2023-02-28T05:58:04.962Z,2.04
2023-02-28T06:03:06.480Z,2.00
2023-02-28T06:08:08.266Z,2.06
2023-02-28T06:13:09.755Z,2.05
2023-02-28T06:18:11.198Z,2.07
2023-02-28T06:23:12.621Z,2.16
2023-02-28T06:28:14.101Z,2.16
2023-02-28T06:33:15.561Z,2.18
2023-02-28T06:38:17.015Z,2.29
2023-02-28T06:43:18.433Z,2.42
2023-02-28T06:48:20.001Z,2.50
2023-02-28T06:53:21.442Z,2.49
2023-02-28T06:58:22.894Z,2.43
2023-02-28T07:03:24.783Z,2.49
2023-02-28T07:08:27.770Z,2.61
2023-02-28T07:13:29.290Z,2.59
2023-02-28T07:18:31.035Z,2.76
2023-02-28T07:23:32.498Z,2.79
2023-02-28T07:28:34.353Z,2.93
2023-02-28T07:33:36.586Z,3.01
2023-02-28T07:38:38.488Z,3.01
2023-02-28T07:43:39.948Z,3.12
2023-02-28T07:48:42.082Z,2.99
2023-02-28T07:53:43.564Z,3.29
2023-02-28T07:58:44.988Z,3.26
2023-02-28T08:03:46.428Z,3.47
2023-02-28T08:08:48.385Z,3.63
2023-02-28T08:13:49.871Z,3.83
2023-02-28T08:18:53.016Z,4.04
2023-02-28T08:23:54.895Z,4.10
2023-02-28T08:28:57.494Z,4.20
2023-02-28T08:34:00.329Z,4.16
2023-02-28T08:39:02.271Z,4.26
2023-02-28T08:44:04.068Z,4.35
2023-02-28T08:49:05.555Z,4.48
2023-02-28T08:54:07.008Z,4.37
2023-02-28T08:59:10.223Z,4.65
2023-02-28T09:04:13.783Z,4.69
2023-02-28T09:09:17.285Z,4.66
2023-02-28T09:14:18.756Z,4.87
2023-02-28T09:19:20.237Z,4.89
2023-02-28T09:24:21.974Z,4.99
2023-02-28T09:29:23.513Z,5.22
2023-02-28T09:34:28.690Z,5.52
2023-02-28T09:39:30.148Z,5.14
2023-02-28T09:44:31.614Z,5.27
2023-02-28T09:49:40.298Z,5.16
2023-02-28T09:54:41.836Z,5.44
2023-02-28T10:00:01.697Z,5.38
2023-02-28T10:05:12.575Z,5.52
2023-02-28T10:10:43.544Z,5.76
2023-02-28T10:15:47.396Z,5.46
2023-02-28T10:20:50.444Z,5.45
2023-02-28T10:26:11.401Z,5.38
2023-02-28T10:31:18.472Z,5.38
2023-02-28T10:36:22.117Z,5.63
2023-02-28T10:41:37.399Z,5.75
2023-02-28T10:46:41.617Z,5.98
2023-02-28T10:51:43.160Z,5.96
2023-02-28T10:56:44.829Z,6.14
2023-02-28T11:01:49.985Z,6.25
2023-02-28T11:07:27.852Z,6.04
2023-02-28T11:12:47.246Z,6.18
2023-02-28T11:17:58.754Z,6.29
2023-02-28T11:23:03.334Z,6.21
2023-02-28T11:28:07.651Z,5.94
2023-02-28T11:33:21.761Z,6.01
2023-02-28T11:38:23.198Z,6.21
2023-02-28T11:43:46.947Z,6.15
2023-02-28T11:49:20.619Z,6.11
2023-02-28T11:54:30.111Z,5.81
2023-02-28T11:59:48.975Z,6.29
2023-02-28T12:05:11.697Z,6.03
2023-02-28T12:10:22.623Z,6.31
2023-02-28T12:15:32.923Z,6.15
2023-02-28T12:20:42.129Z,6.23
2023-02-28T12:25:49.189Z,6.25
2023-02-28T12:30:58.505Z,6.43
2023-02-28T12:36:05.969Z,6.33
2023-02-28T12:41:17.672Z,6.45
2023-02-28T12:46:25.178Z,6.49
2023-02-28T12:51:28.387Z,6.40
2023-02-28T12:57:07.552Z,6.25
2023-02-28T13:02:41.447Z,6.38
2023-02-28T13:08:08.823Z,6.13
2023-02-28T13:13:17.573Z,6.28
2023-02-28T13:18:31.527Z,6.19
2023-02-28T13:23:44.923Z,6.22
2023-02-28T13:28:54.605Z,6.20
2023-02-28T13:33:58.025Z,6.14
2023-02-28T13:39:02.892Z,6.35
2023-02-28T13:44:07.238Z,6.13
2023-02-28T13:49:27.453Z,6.06
2023-02-28T13:54:36.737Z,5.96
2023-02-28T14:00:13.145Z,6.01
2023-02-28T14:05:18.008Z,6.22
2023-02-28T14:10:43.850Z,6.03
2023-02-28T14:16:00.524Z,6.13
2023-02-28T14:21:15.235Z,6.07
2023-02-28T14:26:52.053Z,6.04
2023-02-28T14:31:59.372Z,5.68
2023-02-28T14:37:03.319Z,5.93
2023-02-28T14:42:25.030Z,5.51
2023-02-28T14:47:31.956Z,5.47
2023-02-28T14:52:34.035Z,5.56
2023-02-28T14:57:41.523Z,5.33
2023-02-28T15:02:43.916Z,5.51
2023-02-28T15:07:46.664Z,5.68
2023-02-28T15:13:01.188Z,5.61
2023-02-28T15:18:06.594Z,5.46
2023-02-28T15:23:08.512Z,5.23
2023-02-28T15:28:16.950Z,5.50
2023-02-28T15:33:20.773Z,5.08
2023-02-28T15:38:22.184Z,4.97
2023-02-28T15:43:34.915Z,4.76
2023-02-28T15:48:54.273Z,4.80
2023-02-28T15:53:59.747Z,4.71
2023-02-28T15:59:04.308Z,4.73
2023-02-28T16:04:19.143Z,4.67
2023-02-28T16:09:20.626Z,4.46
2023-02-28T16:14:26.004Z,4.48
2023-02-28T16:19:27.423Z,4.38
2023-02-28T16:24:29.049Z,4.34
2023-02-28T16:29:34.226Z,4.15
2023-02-28T16:34:35.671Z,4.15
2023-02-28T16:39:37.158Z,4.04
2023-02-28T16:44:38.611Z,4.00
2023-02-28T16:49:42.924Z,4.04
2023-02-28T16:54:44.396Z,3.91
2023-02-28T16:59:45.913Z,3.61
2023-02-28T17:04:47.497Z,3.48
2023-02-28T17:09:48.938Z,3.49
2023-02-28T17:14:50.362Z,3.44
2023-02-28T17:19:51.785Z,3.38
2023-02-28T17:24:56.661Z,3.30
2023-02-28T17:29:58.433Z,3.16
2023-02-28T17:34:59.861Z,3.13
2023-02-28T17:40:01.383Z,3.00
2023-02-28T17:45:03.020Z,2.91
2023-02-28T17:50:04.992Z,2.83
2023-02-28T17:55:06.779Z,2.88
2023-02-28T18:00:09.694Z,2.82
2023-02-28T18:05:12.222Z,2.75
2023-02-28T18:10:20.333Z,2.76
2023-02-28T18:15:22.756Z,2.71
2023-02-28T18:20:24.264Z,2.63
2023-02-28T18:25:27.491Z,2.62
2023-02-28T18:30:31.677Z,2.52
2023-02-28T18:35:36.067Z,2.40
2023-02-28T18:40:38.101Z,2.35
2023-02-28T18:45:39.620Z,2.37
2023-02-28T18:50:44.890Z,2.39
2023-02-28T18:55:46.385Z,2.33
2023-02-28T19:00:48.074Z,2.31
2023-02-28T19:05:50.738Z,2.29
2023-02-28T19:10:52.486Z,2.33
2023-02-28T19:16:02.179Z,2.32
2023-02-28T19:21:06.215Z,2.14
2023-02-28T19:26:20.252Z,2.06
2023-02-28T19:31:26.200Z,1.95
2023-02-28T19:36:28.490Z,1.93
2023-02-28T19:41:30.193Z,1.89
2023-02-28T19:46:31.776Z,1.81
2023-02-28T19:51:34.326Z,1.76
2023-02-28T19:56:35.809Z,1.64
2023-02-28T20:01:38.471Z,1.67
2023-02-28T20:06:40.067Z,1.69
2023-02-28T20:11:41.490Z,1.68
2023-02-28T20:16:43.843Z,1.58
2023-02-28T20:21:45.398Z,1.54
2023-02-28T20:26:46.824Z,1.48
2023-02-28T20:31:48.365Z,1.47
2023-02-28T20:36:49.900Z,1.49
2023-02-28T20:41:51.437Z,1.46
2023-02-28T20:46:52.852Z,1.38
2023-02-28T20:51:54.276Z,1.33
2023-02-28T20:56:55.911Z,1.35
2023-02-28T21:01:57.424Z,1.34
2023-02-28T21:06:59.016Z,1.31
2023-02-28T21:12:01.532Z,1.25
2023-02-28T21:17:03.083Z,1.19
2023-02-28T21:22:04.595Z,1.08
2023-02-28T21:27:06.125Z,1.12
2023-02-28T21:32:07.628Z,1.15
2023-02-28T21:37:10.886Z,1.04
2023-02-28T21:42:13.070Z,1.09
2023-02-28T21:47:14.537Z,1.08
2023-02-28T21:52:15.975Z,1.08
2023-02-28T21:57:17.508Z,1.06
2023-02-28T22:02:19.100Z,1.04
2023-02-28T22:07:20.606Z,1.02
2023-02-28T22:12:22.030Z,0.97
2023-02-28T22:17:23.514Z,0.95
2023-02-28T22:22:26.196Z,0.94
2023-02-28T22:27:27.682Z,0.86
2023-02-28T22:32:29.333Z,0.86
2023-02-28T22:37:30.846Z,0.83
2023-02-28T22:42:34.425Z,0.82
2023-02-28T22:47:35.885Z,0.85
2023-02-28T22:52:40.454Z,0.75
2023-02-28T22:57:41.933Z,0.77
2023-02-28T23:02:44.305Z,0.74
2023-02-28T23:07:46.039Z,0.76
2023-02-28T23:12:53.384Z,0.68
2023-02-28T23:17:54.881Z,0.72
2023-02-28T23:22:56.359Z,0.71
2023-02-28T23:27:57.828Z,0.72
2023-02-28T23:32:59.303Z,0.63
2023-02-28T23:38:00.871Z,0.55
2023-02-28T23:43:02.283Z,0.39
2023-02-28T23:48:04.511Z,0.36
2023-02-28T23:53:05.965Z,0.35
2023-02-28T23:58:07.392Z,0.38
